PDX weather

Portland International Airport
Portland, Oregon, United States

Public forecast

Using degrees Fahrenheit for public forecast. Weather courtesy of forecast.io.

METAR (pilot weather report)

Retrieved 2018/10/17 16:53 UTC (53 minutes ago):

KPDX 171653Z 30005KT 10SM CLR 13/06 A3019 RMK AO2 SLP221 T01280061

TAF (pilot weather forecast)

Retrieved 2018/10/17 12:33 UTC (5 hours ago):

TAF KPDX 171130Z 1712/1812 33003KT P6SM SKC FM171800 11007KT P6SM SKC FM180400 VRB03KT P6SM SKC